Weather at Mesa Airport [CLOSED]

Public forecast

Using degrees Fahrenheit for public forecast. Weather courtesy of forecast.io.

Closest aviation weather report (METAR) to Mesa Airport

Closest report is Falcon Field, 5.9 nm (11.0 km) ENE.

2024/05/29 10:54 (retrieved 8 minutes ago)

KFFZ 291054Z AUTO 10007KT 10SM CLR 25/00 A2988 RMK AO2 SLP091 T02500000

Closest aviation forecast (TAF) to Mesa Airport

Closest forecast is Phoenix Sky Harbor International Airport, 8.2 nm (15.1 km) W.

2024/05/29 09:09 Ammendment (retrieved 2 hours ago)

TAF AMD KPHX 290906Z 2909/3012 27006KT P6SM FEW250 FM291000 10005KT P6SM SCT250 FM291900 27009KT P6SM SKC FM300900 10006KT P6SM SKC